Time;durP1;ratioP1;P1;durP2;ratioP2;P2;SDS_P1;SDS_P2;PMS_P1;PMS_P2;Temp;Humidity;BMP_temperature;BMP_pressure;BME280_temperature;BME280_humidity;BME280_pressure;Samples;Min_cycle;Max_cycle;Signal;HPM_P1;HPM_P2
2022/05/03 00:01:57;;;;;;;;;;;;;;;9.09;83.10;99583.66;5053955;28;938;-54
2022/05/03 00:04:24;;;;;;;;;;;;;;;9.22;82.51;99585.97;5054017;28;892;-55
2022/05/03 00:06:57;;;;;;;;;;;;;;;9.36;79.65;99574.88;5053914;28;798;-55
2022/05/03 00:12:42;;;;;;;;;;;;;;;9.59;78.61;99568.88;5053276;28;1882;-56
2022/05/03 00:15:09;;;;;;;;;;;;;;;9.59;78.84;99577.16;5054046;28;814;-57
2022/05/03 00:17:37;;;;;;;;;;;;;;;9.58;76.99;99579.16;5053565;28;910;-55
2022/05/03 00:20:04;;;;;;;;;;;;;;;9.54;78.28;99572.84;5053676;28;850;-54
2022/05/03 00:22:32;;;;;;;;;;;;;;;9.49;78.56;99573.25;5053729;28;807;-56
2022/05/03 00:24:59;;;;;;;;;;;;;;;9.45;78.70;99580.75;5035768;28;922;-54
2022/05/03 00:27:28;;;;;;;;;;;;;;;9.45;79.05;99580.75;5053397;28;1389;-55
2022/05/03 00:29:56;;;;;;;;;;;;;;;9.36;79.10;99583.94;5053430;28;942;-54
2022/05/03 00:32:22;;;;;;;;;;;;;;;9.38;79.32;99586.31;5053418;28;1913;-54
2022/05/03 00:34:49;;;;;;;;;;;;;;;9.35;79.79;99581.59;5053370;28;810;-55
2022/05/03 00:37:16;;;;;;;;;;;;;;;9.30;80.61;99584.75;5053359;28;841;-55
2022/05/03 00:39:42;;;;;;;;;;;;;;;9.26;80.77;99593.06;5053262;28;845;-54
2022/05/03 00:42:40;;;;;;;;;;;;;;;9.23;81.32;99593.84;5053209;28;877;-55
2022/05/03 00:45:10;;;;;;;;;;;;;;;9.24;80.89;99589.91;4998183;28;1343;-55
2022/05/03 00:47:41;;;;;;;;;;;;;;;9.24;80.93;99600.13;5053129;28;938;-55
2022/05/03 00:50:09;;;;;;;;;;;;;;;9.20;80.76;99595.44;5053026;28;918;-54
2022/05/03 00:52:39;;;;;;;;;;;;;;;9.19;80.99;99590.31;5052951;28;1953;-55
2022/05/03 00:55:09;;;;;;;;;;;;;;;9.21;80.69;99604.47;5053063;28;810;-55
2022/05/03 00:57:41;;;;;;;;;;;;;;;9.19;80.73;99602.13;5052927;28;786;-54
2022/05/03 01:00:09;;;;;;;;;;;;;;;9.14;80.42;99602.53;5053450;28;894;-54
2022/05/03 01:02:48;;;;;;;;;;;;;;;9.09;80.71;99600.19;5052724;28;1206;-55
2022/05/03 01:05:17;;;;;;;;;;;;;;;9.04;81.12;99595.06;5052835;28;818;-55
2022/05/03 01:07:48;;;;;;;;;;;;;;;9.02;81.35;99591.91;5052713;28;858;-54
2022/05/03 01:10:15;;;;;;;;;;;;;;;9.03;81.44;99595.50;5052908;28;787;-55
2022/05/03 01:13:13;;;;;;;;;;;;;;;9.08;81.80;99589.56;5052601;28;1885;-55
2022/05/03 01:15:44;;;;;;;;;;;;;;;9.10;81.41;99584.44;4980847;28;1389;-54
2022/05/03 01:18:20;;;;;;;;;;;;;;;9.09;81.92;99578.13;5052545;28;905;-55
2022/05/03 01:20:59;;;;;;;;;;;;;;;9.08;81.67;99571.03;5052814;28;807;-54
2022/05/03 01:23:44;;;;;;;;;;;;;;;9.09;81.92;99564.34;5051555;28;906;-55
2022/05/03 01:26:20;;;;;;;;;;;;;;;9.14;81.83;99563.16;5030916;28;1257;-54
2022/05/03 01:28:52;;;;;;;;;;;;;;;9.22;81.93;99564.72;5032516;28;806;-55
2022/05/03 01:31:20;;;;;;;;;;;;;;;9.26;81.61;99565.47;5032674;28;794;-55
2022/05/03 01:33:49;;;;;;;;;;;;;;;9.31;81.82;99556.00;5032291;28;1914;-55
2022/05/03 01:36:24;;;;;;;;;;;;;;;9.36;81.57;99553.59;5031037;28;1509;-55
2022/05/03 01:39:14;;;;;;;;;;;;;;;9.39;81.53;99554.78;5032264;28;873;-54
2022/05/03 01:41:48;;;;;;;;;;;;;;;9.38;81.40;99553.22;5031033;28;877;-56
2022/05/03 01:44:29;;;;;;;;;;;;;;;9.42;81.29;99559.50;5032251;28;794;-56
2022/05/03 01:46:58;;;;;;;;;;;;;;;9.44;81.38;99559.13;5032101;28;814;-55
2022/05/03 01:52:47;;;;;;;;;;;;;;;9.44;81.55;99564.63;5032008;28;1886;-54
2022/05/03 01:55:24;;;;;;;;;;;;;;;9.40;81.81;99568.16;5032008;28;932;-55
2022/05/03 01:57:51;;;;;;;;;;;;;;;9.40;81.78;99567.41;5031014;28;891;-55
2022/05/03 02:00:20;;;;;;;;;;;;;;;9.39;82.29;99563.06;5032504;28;787;-56
2022/05/03 02:02:54;;;;;;;;;;;;;;;9.37;82.34;99557.94;5032139;28;822;-55
2022/05/03 02:05:39;;;;;;;;;;;;;;;9.39;82.44;99554.78;5031713;28;973;-55
2022/05/03 02:08:10;;;;;;;;;;;;;;;9.40;82.30;99565.41;5031401;28;1315;-56
2022/05/03 02:10:55;;;;;;;;;;;;;;;9.43;82.53;99561.09;5031671;28;878;-56
2022/05/03 02:13:21;;;;;;;;;;;;;;;9.41;82.39;99566.22;5031697;28;1886;-55
2022/05/03 02:15:50;;;;;;;;;;;;;;;9.42;82.72;99562.25;5031733;28;799;-54
2022/05/03 02:18:26;;;;;;;;;;;;;;;9.39;82.97;99563.06;5030445;28;907;-55
2022/05/03 02:21:10;;;;;;;;;;;;;;;9.38;83.08;99555.97;5030473;28;854;-55
2022/05/03 02:23:42;;;;;;;;;;;;;;;9.39;82.99;99557.56;5031683;28;798;-57
2022/05/03 02:26:16;;;;;;;;;;;;;;;9.43;82.71;99560.28;5038459;28;1141;-55
2022/05/03 02:28:53;;;;;;;;;;;;;;;9.41;82.77;99557.94;5051495;28;893;-56
2022/05/03 02:31:27;;;;;;;;;;;;;;;9.39;82.82;99555.59;5051367;28;839;-55
2022/05/03 02:34:01;;;;;;;;;;;;;;;9.37;82.71;99559.94;5052399;28;1976;-54
2022/05/03 02:36:28;;;;;;;;;;;;;;;9.35;82.93;99554.81;5058095;28;916;-55
2022/05/03 02:38:55;;;;;;;;;;;;;;;9.34;83.17;99560.72;5057971;28;846;-55
2022/05/03 02:41:23;;;;;;;;;;;;;;;9.32;82.89;99558.34;5040183;28;859;-54
2022/05/03 02:43:50;;;;;;;;;;;;;;;9.31;82.94;99561.53;5058094;28;802;-55
2022/05/03 02:46:24;;;;;;;;;;;;;;;9.26;82.81;99553.66;5058006;28;869;-54
2022/05/03 02:48:55;;;;;;;;;;;;;;;9.24;82.99;99550.50;5057971;28;807;-54
2022/05/03 02:51:26;;;;;;;;;;;;;;;9.24;83.36;99556.81;5057944;28;889;-56
2022/05/03 02:53:55;;;;;;;;;;;;;;;9.23;83.15;99554.47;5058051;28;1886;-55
2022/05/03 02:56:26;;;;;;;;;;;;;;;9.20;83.43;99559.59;5057883;28;806;-55
2022/05/03 02:59:11;;;;;;;;;;;;;;;9.18;83.33;99558.41;5057882;28;929;-55
2022/05/03 03:01:56;;;;;;;;;;;;;;;9.12;83.92;99560.00;5057798;28;916;-55
2022/05/03 03:04:44;;;;;;;;;;;;;;;9.10;83.85;99562.38;5057924;28;897;-55
2022/05/03 03:07:12;;;;;;;;;;;;;;;9.11;84.12;99569.44;5058047;28;826;-54
2022/05/03 03:09:45;;;;;;;;;;;;;;;9.15;84.18;99570.22;5057683;28;846;-55
2022/05/03 03:12:11;;;;;;;;;;;;;;;9.16;84.24;99566.31;5058069;28;1960;-55
2022/05/03 03:14:46;;;;;;;;;;;;;;;9.14;84.36;99569.44;5057689;28;914;-55
2022/05/03 03:17:18;;;;;;;;;;;;;;;9.13;84.39;99576.16;5057703;28;849;-56
2022/05/03 03:20:00;;;;;;;;;;;;;;;9.13;84.72;99584.44;5057700;28;864;-55
2022/05/03 03:22:31;;;;;;;;;;;;;;;9.12;84.86;99573.78;5057695;28;857;-55
2022/05/03 03:24:59;;;;;;;;;;;;;;;9.13;85.03;99575.34;5057842;28;862;-55
2022/05/03 03:27:26;;;;;;;;;;;;;;;9.14;84.95;99576.94;5057445;28;1238;-55
2022/05/03 03:29:56;;;;;;;;;;;;;;;9.17;85.52;99581.66;5057641;28;798;-55
2022/05/03 03:32:27;;;;;;;;;;;;;;;9.21;85.41;99576.91;5057684;28;1971;-54
2022/05/03 03:34:58;;;;;;;;;;;;;;;9.24;85.24;99583.59;5057595;28;893;-55
2022/05/03 03:37:27;;;;;;;;;;;;;;;9.24;85.21;99584.41;5057555;28;554;-55
2022/05/03 03:39:54;;;;;;;;;;;;;;;9.26;85.26;99582.03;5057333;28;847;-55
2022/05/03 03:42:21;;;;;;;;;;;;;;;9.28;85.40;99585.19;5057439;28;925;-54
2022/05/03 03:44:48;;;;;;;;;;;;;;;9.31;85.49;99589.09;5057404;28;843;-54
2022/05/03 03:47:15;;;;;;;;;;;;;;;9.37;85.13;99591.06;5053738;28;929;-54
2022/05/03 03:49:42;;;;;;;;;;;;;;;9.44;84.88;99587.47;5054110;28;916;-55
2022/05/03 03:52:09;;;;;;;;;;;;;;;9.54;84.89;99589.41;5054195;28;1881;-54
2022/05/03 03:54:36;;;;;;;;;;;;;;;9.66;84.52;99587.38;5036402;28;1004;-54
2022/05/03 03:57:04;;;;;;;;;;;;;;;9.77;84.21;99579.81;5054097;28;830;-54
2022/05/03 03:59:31;;;;;;;;;;;;;;;9.92;83.67;99575.00;5054148;28;850;-56
2022/05/03 04:01:58;;;;;;;;;;;;;;;10.03;83.14;99575.75;5053989;28;846;-56
2022/05/03 04:04:26;;;;;;;;;;;;;;;10.15;82.87;99577.25;5054173;28;870;-55
2022/05/03 04:06:53;;;;;;;;;;;;;;;10.23;82.08;99570.47;5053857;28;795;-56
2022/05/03 04:09:20;;;;;;;;;;;;;;;10.24;81.80;99591.38;5054292;28;873;-55
2022/05/03 04:11:47;;;;;;;;;;;;;;;10.23;81.79;99592.56;5035785;28;1874;-55
2022/05/03 04:14:14;;;;;;;;;;;;;;;10.24;81.54;99591.38;5053876;28;814;-56
2022/05/03 04:16:41;;;;;;;;;;;;;;;10.27;81.74;99595.31;5053750;28;850;-55
2022/05/03 04:19:08;;;;;;;;;;;;;;;10.26;81.00;99591.75;5053719;28;885;-55
2022/05/03 04:21:35;;;;;;;;;;;;;;;10.28;81.43;99594.91;5053743;28;873;-56
2022/05/03 04:24:01;;;;;;;;;;;;;;;10.27;81.15;99593.34;5053622;28;874;-55
2022/05/03 04:26:27;;;;;;;;;;;;;;;10.29;81.22;99584.66;5032250;28;1662;-55
2022/05/03 04:28:58;;;;;;;;;;;;;;;10.33;81.07;99588.22;5033665;28;933;-55
2022/05/03 04:31:25;;;;;;;;;;;;;;;10.44;81.04;99585.38;5033746;28;863;-54
2022/05/03 04:33:53;;;;;;;;;;;;;;;10.53;81.07;99582.91;5033487;28;1967;-55
2022/05/03 04:36:21;;;;;;;;;;;;;;;10.64;80.62;99578.06;5033407;28;897;-55
2022/05/03 04:38:47;;;;;;;;;;;;;;;10.73;79.41;99572.06;5033303;28;913;-54
2022/05/03 04:41:14;;;;;;;;;;;;;;;10.76;79.50;99577.56;5033413;28;834;-55
2022/05/03 04:43:42;;;;;;;;;;;;;;;10.80;79.51;99581.09;5033370;28;862;-55
2022/05/03 04:46:09;;;;;;;;;;;;;;;10.90;78.95;99584.16;5033672;28;787;-55
2022/05/03 04:48:35;;;;;;;;;;;;;;;11.01;78.12;99569.03;5033174;28;960;-55
2022/05/03 04:51:01;;;;;;;;;;;;;;;11.15;78.02;99572.84;5033236;28;870;-56
2022/05/03 04:53:28;;;;;;;;;;;;;;;11.24;77.82;99573.13;5033045;28;1890;-55
2022/05/03 04:55:54;;;;;;;;;;;;;;;11.23;77.58;99577.88;5033280;28;897;-56
2022/05/03 04:58:21;;;;;;;;;;;;;;;11.27;77.40;99579.84;5031857;28;838;-55
2022/05/03 05:00:48;;;;;;;;;;;;;;;11.32;77.80;99573.84;5033058;28;835;-55
2022/05/03 05:03:15;;;;;;;;;;;;;;;11.35;77.98;99571.03;5032975;28;925;-56
2022/05/03 05:05:42;;;;;;;;;;;;;;;11.41;76.77;99576.88;5032842;28;915;-55
2022/05/03 05:08:09;;;;;;;;;;;;;;;11.45;76.79;99572.09;5032865;28;1040;-56
2022/05/03 05:10:36;;;;;;;;;;;;;;;11.54;76.85;99579.91;5032861;28;897;-55
2022/05/03 05:13:02;;;;;;;;;;;;;;;11.58;76.04;99583.41;5032745;28;2031;-55
2022/05/03 05:15:29;;;;;;;;;;;;;;;11.56;75.48;99586.56;5032817;28;798;-56
2022/05/03 05:17:57;;;;;;;;;;;;;;;11.54;76.19;99585.44;5031515;28;853;-55
2022/05/03 05:20:25;;;;;;;;;;;;;;;11.60;75.76;99581.00;5032764;28;791;-55
2022/05/03 05:22:51;;;;;;;;;;;;;;;11.70;74.94;99579.31;5032636;28;853;-55
2022/05/03 05:25:18;;;;;;;;;;;;;;;11.88;75.05;99577.09;5032884;28;908;-56
2022/05/03 05:27:45;;;;;;;;;;;;;;;12.04;74.65;99573.72;5032515;28;905;-56
2022/05/03 05:30:12;;;;;;;;;;;;;;;12.26;73.35;99579.72;5032488;28;802;-56
2022/05/03 05:32:38;;;;;;;;;;;;;;;12.49;73.11;99580.97;5032513;28;1984;-55
2022/05/03 05:35:05;;;;;;;;;;;;;;;12.68;72.78;99580.25;5032411;28;849;-56
2022/05/03 05:37:32;;;;;;;;;;;;;;;12.81;72.00;99578.44;5032204;28;876;-55
2022/05/03 05:39:59;;;;;;;;;;;;;;;12.80;70.67;99571.31;5032189;28;948;-55
2022/05/03 05:42:28;;;;;;;;;;;;;;;12.72;70.53;99580.97;5032292;28;830;-55
2022/05/03 05:44:55;;;;;;;;;;;;;;;12.83;70.64;99584.34;5032133;28;819;-56
2022/05/03 05:47:22;;;;;;;;;;;;;;;12.90;70.47;99588.19;5032301;28;867;-56
2022/05/03 05:49:48;;;;;;;;;;;;;;;13.03;71.04;99589.13;5032026;28;870;-56
2022/05/03 05:55:01;;;;;;;;;;;;;;;13.06;69.96;99599.41;5032310;28;688;-55
2022/05/03 05:57:27;;;;;;;;;;;;;;;12.95;70.82;99599.59;5032243;28;922;-55
2022/05/03 05:59:54;;;;;;;;;;;;;;;12.84;71.44;99604.53;5031875;28;898;-54
2022/05/03 06:02:21;;;;;;;;;;;;;;;12.79;71.68;99608.56;5031921;28;810;-54
2022/05/03 06:04:48;;;;;;;;;;;;;;;12.72;71.15;99607.94;5031750;28;899;-55
2022/05/03 06:07:15;;;;;;;;;;;;;;;12.64;71.59;99610.78;5031748;28;914;-55
2022/05/03 06:09:43;;;;;;;;;;;;;;;12.81;71.62;99613.69;5031420;28;873;-55
2022/05/03 06:12:09;;;;;;;;;;;;;;;13.16;70.40;99615.03;5031646;28;1948;-54
2022/05/03 06:14:36;;;;;;;;;;;;;;;13.40;69.03;99612.25;5030478;28;927;-57
2022/05/03 06:17:03;;;;;;;;;;;;;;;13.58;68.00;99620.25;5031717;28;904;-54
2022/05/03 06:19:31;;;;;;;;;;;;;;;13.69;67.81;99618.03;5031683;28;897;-54
2022/05/03 06:21:57;;;;;;;;;;;;;;;13.62;66.59;99607.84;5031670;28;889;-54
2022/05/03 06:24:23;;;;;;;;;;;;;;;13.41;67.26;99617.38;5031693;28;911;-55
2022/05/03 06:26:50;;;;;;;;;;;;;;;13.48;67.80;99613.69;5043827;28;1430;-54
2022/05/03 06:29:16;;;;;;;;;;;;;;;13.56;68.02;99617.88;5051464;28;920;-57
2022/05/03 06:31:43;;;;;;;;;;;;;;;13.59;65.74;99621.78;5051224;28;1906;-55
2022/05/03 06:34:10;;;;;;;;;;;;;;;13.58;65.99;99611.91;5051459;28;826;-54
2022/05/03 06:36:37;;;;;;;;;;;;;;;13.51;66.47;99623.16;5051274;28;831;-54
2022/05/03 06:39:05;;;;;;;;;;;;;;;13.37;65.96;99627.78;5051295;28;1428;-56
2022/05/03 06:41:35;;;;;;;;;;;;;;;13.39;67.01;99628.13;5051471;28;865;-55
2022/05/03 06:44:02;;;;;;;;;;;;;;;13.29;67.14;99634.66;5051292;28;818;-54
2022/05/03 06:46:29;;;;;;;;;;;;;;;13.15;67.33;99634.91;5051387;28;811;-54
2022/05/03 06:48:55;;;;;;;;;;;;;;;13.33;67.61;99640.94;5051224;28;882;-56
2022/05/03 06:51:22;;;;;;;;;;;;;;;13.48;66.91;99647.00;5051211;28;880;-54
2022/05/03 06:53:49;;;;;;;;;;;;;;;13.47;66.30;99643.44;5051092;28;1890;-54
2022/05/03 06:56:15;;;;;;;;;;;;;;;13.31;67.04;99637.03;5051166;28;953;-55
2022/05/03 06:58:42;;;;;;;;;;;;;;;13.07;67.33;99654.44;5051223;28;786;-54
2022/05/03 07:01:10;;;;;;;;;;;;;;;13.03;67.02;99653.72;5051176;28;870;-55
2022/05/03 07:03:37;;;;;;;;;;;;;;;13.23;67.20;99653.78;5051054;28;1827;-56
2022/05/03 07:06:03;;;;;;;;;;;;;;;13.38;66.83;99659.09;5051060;28;810;-55
2022/05/03 07:08:31;;;;;;;;;;;;;;;13.24;65.95;99663.66;5051136;28;830;-55
2022/05/03 07:10:57;;;;;;;;;;;;;;;13.03;67.20;99661.28;5051124;28;881;-54
2022/05/03 07:13:25;;;;;;;;;;;;;;;12.96;67.22;99659.41;5050986;28;1894;-54
2022/05/03 07:15:55;;;;;;;;;;;;;;;12.90;66.53;99652.75;5051066;28;834;-54
2022/05/03 07:23:54;;;;;;;;;;;;;;;12.88;67.57;99664.28;5054762;28;1269;-54
2022/05/03 07:26:21;;;;;;;;;;;;;;;12.62;66.87;99665.09;5054447;28;1393;-54
2022/05/03 07:28:48;;;;;;;;;;;;;;;12.40;68.09;99662.66;5054530;28;879;-55
2022/05/03 07:31:16;;;;;;;;;;;;;;;12.29;68.81;99664.00;5054625;28;973;-55
2022/05/03 07:33:43;;;;;;;;;;;;;;;12.20;68.76;99665.31;5054397;28;1914;-55
2022/05/03 07:36:11;;;;;;;;;;;;;;;12.11;69.53;99670.56;5054522;28;846;-55
2022/05/03 07:38:38;;;;;;;;;;;;;;;12.03;69.75;99667.13;5054469;28;878;-54
2022/05/03 07:41:06;;;;;;;;;;;;;;;12.00;69.17;99676.25;5054352;28;855;-56
2022/05/03 07:43:33;;;;;;;;;;;;;;;11.95;68.85;99679.50;5054326;28;855;-54
2022/05/03 07:45:59;;;;;;;;;;;;;;;12.03;68.52;99685.72;5054693;28;838;-55
2022/05/03 07:48:27;;;;;;;;;;;;;;;12.26;68.17;99685.03;5054227;28;941;-56
2022/05/03 07:50:54;;;;;;;;;;;;;;;12.52;67.17;99680.69;5054176;28;930;-54
2022/05/03 07:53:21;;;;;;;;;;;;;;;12.71;66.69;99676.44;5054180;28;1922;-54
2022/05/03 07:55:48;;;;;;;;;;;;;;;12.78;66.17;99681.91;5054182;28;877;-55
2022/05/03 07:58:16;;;;;;;;;;;;;;;12.65;66.59;99681.69;5054192;28;842;-54
2022/05/03 08:00:42;;;;;;;;;;;;;;;12.56;67.29;99686.19;5036216;28;879;-54
2022/05/03 08:03:09;;;;;;;;;;;;;;;12.43;68.88;99681.22;5054030;28;826;-54
2022/05/03 08:05:36;;;;;;;;;;;;;;;12.50;69.08;99685.09;5053963;28;929;-55
2022/05/03 08:08:01;;;;;;;;;;;;;;;12.53;69.65;99675.94;5053923;28;830;-55
2022/05/03 08:10:29;;;;;;;;;;;;;;;12.58;68.93;99667.16;5053944;28;875;-54
2022/05/03 08:12:55;;;;;;;;;;;;;;;12.65;68.41;99675.34;5054091;28;1890;-56
2022/05/03 08:15:22;;;;;;;;;;;;;;;12.66;68.56;99677.72;5053835;28;889;-52
2022/05/03 08:17:49;;;;;;;;;;;;;;;12.73;69.25;99681.56;5053610;28;914;-54
2022/05/03 08:20:16;;;;;;;;;;;;;;;12.74;69.13;99681.16;5053819;28;873;-53
2022/05/03 08:22:42;;;;;;;;;;;;;;;12.74;68.06;99681.16;5053670;28;843;-55
2022/05/03 08:25:10;;;;;;;;;;;;;;;12.58;68.82;99678.25;5053525;28;1470;-56
2022/05/03 08:27:38;;;;;;;;;;;;;;;12.64;69.46;99671.78;5032402;28;1221;-56
2022/05/03 08:30:13;;;;;;;;;;;;;;;12.87;68.89;99681.34;5033522;28;937;-55
2022/05/03 08:32:40;;;;;;;;;;;;;;;13.15;67.27;99677.31;5034081;28;1910;-54
2022/05/03 08:35:06;;;;;;;;;;;;;;;13.42;66.47;99676.47;5032496;28;815;-54
2022/05/03 08:43:07;;;;;;;;;;;;;;;13.52;65.06;99683.81;5033419;28;637;-54
2022/05/03 08:45:34;;;;;;;;;;;;;;;12.80;67.44;99682.25;5033354;28;850;-54
2022/05/03 08:48:01;;;;;;;;;;;;;;;12.37;70.42;99680.09;5033197;28;914;-54
2022/05/03 08:50:29;;;;;;;;;;;;;;;11.99;71.82;99683.00;5033557;28;907;-55
2022/05/03 08:52:56;;;;;;;;;;;;;;;11.83;73.37;99683.56;5033050;28;1874;-55
2022/05/03 08:55:24;;;;;;;;;;;;;;;11.95;74.90;99685.03;5033237;28;846;-56
2022/05/03 08:57:51;;;;;;;;;;;;;;;11.87;75.12;99677.19;5033528;28;842;-56
2022/05/03 09:00:19;;;;;;;;;;;;;;;11.69;77.10;99671.84;5033517;28;869;-56
2022/05/03 09:02:48;;;;;;;;;;;;;;;11.48;76.38;99673.69;5033114;28;865;-56
2022/05/03 09:05:15;;;;;;;;;;;;;;;11.13;77.40;99677.56;5032954;28;882;-56
2022/05/03 09:07:51;;;;;;;;;;;;;;;10.71;78.47;99683.06;5032945;28;865;-56
2022/05/03 09:10:18;;;;;;;;;;;;;;;10.44;81.85;99685.63;5032946;28;842;-57
2022/05/03 09:12:45;;;;;;;;;;;;;;;10.31;83.37;99679.78;5032669;28;1941;-56
2022/05/03 09:15:13;;;;;;;;;;;;;;;10.31;85.84;99679.00;5032779;28;802;-56
2022/05/03 09:17:41;;;;;;;;;;;;;;;10.41;86.98;99676.16;5031405;28;804;-56
2022/05/03 09:25:49;;;;;;;;;;;;;;;10.50;86.03;99652.81;5036843;28;1157;-56
2022/05/03 09:28:18;;;;;;;;;;;;;;;10.41;87.46;99647.72;5052421;28;918;-56
2022/05/03 09:30:47;;;;;;;;;;;;;;;10.44;88.42;99648.91;5053027;28;783;-56
2022/05/03 09:33:21;;;;;;;;;;;;;;;10.56;89.46;99648.41;5052285;28;1914;-56
2022/05/03 09:35:49;;;;;;;;;;;;;;;10.63;88.51;99649.16;5052460;28;806;-56
2022/05/03 09:38:16;;;;;;;;;;;;;;;10.77;86.82;99642.72;5052093;28;927;-56
2022/05/03 09:40:43;;;;;;;;;;;;;;;10.94;84.97;99649.28;5052260;28;802;-56
2022/05/03 09:43:10;;;;;;;;;;;;;;;11.11;83.81;99649.53;5051945;28;870;-56
2022/05/03 09:45:36;;;;;;;;;;;;;;;11.34;83.31;99646.16;5051700;28;877;-56
2022/05/03 09:48:04;;;;;;;;;;;;;;;11.53;81.63;99637.25;5052064;28;909;-56
2022/05/03 09:50:31;;;;;;;;;;;;;;;11.71;79.58;99639.78;5052024;28;842;-56
2022/05/03 09:52:57;;;;;;;;;;;;;;;11.81;77.67;99643.63;5052009;28;1946;-56
2022/05/03 09:55:30;;;;;;;;;;;;;;;11.86;77.49;99637.63;5051978;28;877;-56
2022/05/03 10:26:51;;;;;;;;;;;;;;;13.01;78.04;99613.75;5344373;22;1686;-55
2022/05/03 10:29:18;;;;;;;;;;;;;;;12.82;77.83;99609.72;5051583;28;829;-56
2022/05/03 10:31:53;;;;;;;;;;;;;;;12.70;78.35;99616.66;5051655;28;817;-56
2022/05/03 10:34:38;;;;;;;;;;;;;;;12.69;78.72;99608.75;5051329;28;901;-56
2022/05/03 10:37:05;;;;;;;;;;;;;;;12.85;78.45;99608.88;5051507;28;826;-56
2022/05/03 10:39:32;;;;;;;;;;;;;;;13.06;75.09;99599.41;5051348;28;882;-56
2022/05/03 10:42:10;;;;;;;;;;;;;;;13.22;74.86;99607.78;5051393;28;877;-55
2022/05/03 10:44:54;;;;;;;;;;;;;;;13.53;78.30;99612.41;5051928;28;787;-55
2022/05/03 10:47:39;;;;;;;;;;;;;;;13.80;77.95;99603.91;5051372;28;811;-56
2022/05/03 10:50:12;;;;;;;;;;;;;;;13.66;74.53;99616.13;5051290;28;870;-56
2022/05/03 10:53:05;;;;;;;;;;;;;;;13.34;76.64;99620.31;5051736;28;1902;-55
2022/05/03 10:55:33;;;;;;;;;;;;;;;13.06;77.28;99616.81;5051060;28;1868;-56
2022/05/03 10:58:20;;;;;;;;;;;;;;;13.04;78.74;99624.00;5055182;28;870;-56
2022/05/03 11:01:04;;;;;;;;;;;;;;;13.19;77.90;99619.75;5055195;28;846;-56
2022/05/03 11:03:40;;;;;;;;;;;;;;;13.37;79.19;99618.66;5055280;28;926;-56
2022/05/03 11:06:19;;;;;;;;;;;;;;;13.31;71.97;99615.59;5055178;28;815;-57
2022/05/03 11:09:05;;;;;;;;;;;;;;;13.45;76.29;99618.09;5055528;28;795;-56
2022/05/03 11:11:53;;;;;;;;;;;;;;;13.46;74.03;99618.88;5054955;28;934;-55
2022/05/03 11:14:21;;;;;;;;;;;;;;;13.38;73.96;99614.69;5055451;28;866;-56
2022/05/03 11:17:04;;;;;;;;;;;;;;;13.24;75.40;99610.16;5055000;28;803;-56
2022/05/03 11:19:31;;;;;;;;;;;;;;;13.16;74.59;99614.28;5054937;28;911;-56
2022/05/03 11:21:58;;;;;;;;;;;;;;;13.07;74.35;99601.72;5054860;28;795;-56
2022/05/03 11:24:26;;;;;;;;;;;;;;;13.07;74.23;99604.50;5054659;28;921;-56
2022/05/03 11:26:57;;;;;;;;;;;;;;;13.13;76.23;99612.34;5054525;28;1363;-56
2022/05/03 11:29:31;;;;;;;;;;;;;;;13.26;76.23;99602.97;5055410;28;743;-56
2022/05/03 11:31:59;;;;;;;;;;;;;;;13.42;76.58;99607.06;5054548;28;1930;-54
2022/05/03 11:34:26;;;;;;;;;;;;;;;13.65;74.17;99598.66;5054761;28;889;-55
2022/05/03 11:36:53;;;;;;;;;;;;;;;13.79;72.57;99610.69;5036655;28;1206;-56
2022/05/03 11:39:20;;;;;;;;;;;;;;;13.94;76.17;99598.06;5054497;28;818;-56
2022/05/03 11:41:47;;;;;;;;;;;;;;;14.13;75.02;99595.69;5054398;28;989;-56
2022/05/03 11:44:15;;;;;;;;;;;;;;;14.21;73.79;99594.28;5054370;28;799;-56
2022/05/03 11:46:43;;;;;;;;;;;;;;;14.23;75.08;99595.44;5036476;28;1386;-55
2022/05/03 11:49:11;;;;;;;;;;;;;;;14.24;72.81;99596.19;5054195;28;927;-55
2022/05/03 11:57:26;;;;;;;;;;;;;;;14.39;72.50;99599.44;5054458;28;657;-56
2022/05/03 11:59:55;;;;;;;;;;;;;;;14.31;70.07;99596.03;5054189;28;930;-56
2022/05/03 12:02:22;;;;;;;;;;;;;;;14.17;69.64;99593.59;5054042;28;1025;-56
2022/05/03 12:07:37;;;;;;;;;;;;;;;14.01;66.70;99589.56;5053295;28;629;-56
2022/05/03 12:10:19;;;;;;;;;;;;;;;13.88;69.69;99597.78;5053995;28;853;-55
2022/05/03 12:12:47;;;;;;;;;;;;;;;13.81;68.79;99591.59;5053726;28;1874;-56
2022/05/03 12:15:15;;;;;;;;;;;;;;;13.59;71.96;99592.06;5053733;28;937;-55
2022/05/03 12:17:52;;;;;;;;;;;;;;;13.39;71.30;99592.03;5054175;28;787;-55
2022/05/03 12:23:41;;;;;;;;;;;;;;;13.14;72.52;99600.81;5053640;28;614;-56
2022/05/03 12:26:16;;;;;;;;;;;;;;;13.17;75.53;99599.19;5053688;28;1181;-55
2022/05/03 12:28:44;;;;;;;;;;;;;;;13.21;75.52;99599.91;5053595;28;873;-55
2022/05/03 12:31:12;;;;;;;;;;;;;;;13.26;75.98;99597.41;5053871;28;884;-54
2022/05/03 12:33:55;;;;;;;;;;;;;;;13.34;74.41;99600.88;5053433;28;1973;-56
2022/05/03 12:36:28;;;;;;;;;;;;;;;13.43;74.97;99600.31;5053649;28;826;-55
2022/05/03 12:38:55;;;;;;;;;;;;;;;13.50;74.50;99597.38;5053303;28;925;-55
2022/05/03 12:41:31;;;;;;;;;;;;;;;13.52;72.60;99603.28;5053301;28;907;-55
2022/05/03 12:44:24;;;;;;;;;;;;;;;13.47;72.03;99610.13;5054012;28;897;-56
2022/05/03 12:46:51;;;;;;;;;;;;;;;13.31;71.45;99615.59;5049243;28;1630;-55
2022/05/03 12:49:18;;;;;;;;;;;;;;;13.13;73.22;99615.91;5035352;28;1339;-55
2022/05/03 12:51:46;;;;;;;;;;;;;;;13.15;75.30;99621.03;5053209;28;814;-55
2022/05/03 12:54:13;;;;;;;;;;;;;;;13.09;74.46;99617.97;5053040;28;1954;-55
2022/05/03 12:59:25;;;;;;;;;;;;;;;12.77;76.71;99627.63;5053362;28;664;-55
2022/05/03 13:01:55;;;;;;;;;;;;;;;12.60;75.96;99625.94;5053028;28;806;-54
2022/05/03 13:04:23;;;;;;;;;;;;;;;12.39;77.09;99625.03;5052784;28;954;-55
2022/05/03 13:06:50;;;;;;;;;;;;;;;12.24;75.95;99629.25;5053192;28;834;-54
2022/05/03 13:09:16;;;;;;;;;;;;;;;12.13;75.13;99629.38;5052855;28;827;-56
2022/05/03 13:11:44;;;;;;;;;;;;;;;12.07;75.03;99622.75;5052695;28;866;-56
2022/05/03 13:14:11;;;;;;;;;;;;;;;12.00;74.58;99628.38;5052810;28;1975;-56
2022/05/03 13:16:38;;;;;;;;;;;;;;;11.99;75.22;99627.63;5052738;28;815;-56
2022/05/03 13:19:06;;;;;;;;;;;;;;;12.04;76.05;99623.59;5051489;28;976;-55
2022/05/03 13:21:36;;;;;;;;;;;;;;;12.08;77.27;99624.31;5052485;28;931;-55
2022/05/03 13:24:04;;;;;;;;;;;;;;;12.09;77.60;99627.88;5052387;28;938;-55
2022/05/03 13:26:32;;;;;;;;;;;;;;;12.05;80.56;99628.72;5031197;28;1246;-55
2022/05/03 13:29:03;;;;;;;;;;;;;;;11.97;80.29;99631.97;5032500;28;803;-55
2022/05/03 13:31:29;;;;;;;;;;;;;;;11.80;81.42;99629.00;5032481;28;877;-55
2022/05/03 13:33:57;;;;;;;;;;;;;;;11.51;83.69;99625.78;5032392;28;1917;-55
2022/05/03 13:41:54;;;;;;;;;;;;;;;11.03;86.86;99629.44;5032283;28;576;-55
2022/05/03 13:44:22;;;;;;;;;;;;;;;10.81;88.58;99632.41;5032440;28;822;-55
2022/05/03 13:46:49;;;;;;;;;;;;;;;10.57;89.91;99650.78;5031029;28;835;-56
2022/05/03 13:49:15;;;;;;;;;;;;;;;10.38;91.71;99651.31;5032164;28;922;-56
2022/05/03 13:51:42;;;;;;;;;;;;;;;10.24;93.47;99652.13;5031937;28;846;-56
2022/05/03 13:54:09;;;;;;;;;;;;;;;10.13;94.80;99643.13;5032032;28;1953;-56
2022/05/03 13:56:36;;;;;;;;;;;;;;;10.05;95.98;99642.41;5032105;28;826;-56
2022/05/03 13:59:04;;;;;;;;;;;;;;;9.90;96.32;99649.16;5031875;28;898;-58
2022/05/03 14:01:33;;;;;;;;;;;;;;;9.75;97.47;99646.50;5032009;28;807;-59
2022/05/03 14:04:02;;;;;;;;;;;;;;;9.69;98.33;99652.81;5031813;28;909;-59
2022/05/03 14:06:29;;;;;;;;;;;;;;;9.62;98.73;99650.84;5031858;28;875;-59
2022/05/03 14:08:55;;;;;;;;;;;;;;;9.51;96.23;99658.38;5031793;28;871;-59
2022/05/03 14:11:21;;;;;;;;;;;;;;;9.45;97.22;99666.28;5031867;28;853;-59
2022/05/03 14:13:48;;;;;;;;;;;;;;;9.48;98.52;99664.72;5031918;28;1886;-59
2022/05/03 14:16:16;;;;;;;;;;;;;;;9.56;99.36;99658.78;5031854;28;955;-59
2022/05/03 14:18:44;;;;;;;;;;;;;;;9.66;99.47;99659.13;5031740;28;798;-59
2022/05/03 14:21:10;;;;;;;;;;;;;;;9.67;99.73;99661.50;5031576;28;807;-59
2022/05/03 14:23:38;;;;;;;;;;;;;;;9.63;98.92;99659.94;5031745;28;815;-60
2022/05/03 14:26:06;;;;;;;;;;;;;;;9.57;98.33;99651.28;5036860;28;1211;-59
2022/05/03 14:28:32;;;;;;;;;;;;;;;9.61;99.16;99657.56;5051444;28;914;-59
2022/05/03 14:31:01;;;;;;;;;;;;;;;9.53;97.94;99661.53;5051138;28;850;-60
2022/05/03 14:33:28;;;;;;;;;;;;;;;9.48;98.77;99657.22;5051414;28;1973;-59
2022/05/03 14:35:55;;;;;;;;;;;;;;;9.46;99.18;99656.84;5051493;28;838;-59
2022/05/03 14:38:21;;;;;;;;;;;;;;;9.52;99.82;99660.75;5051565;28;904;-60